Lichtenhain Mittelndorf, Germany

10:49 PM CEST on March 31, 2015 (GMT +0200)
Sebnitz | | Change Station
CLOSE
Current Station
Personal Weather Station
Location: Sebnitz, SACHSEN
Elevation: 1060 ft
Nearby Weather Stations

Elev 1060 ft 50.97 °N, 14.27 °E | Updated 3 minutes ago

Clear
Clear
41.4 °F
Feels Like 41 °F
N
1.7
Wind Variable Wind from NNE
Gusts 4.0 mph

Today
High -- | Low -- °F
--% Chance of Precip.
Yesterday
High -- | Low -- °F
Precip. -- in
6:42 AM 7:33 PM
Waxing Gibbous, 88% visible
Pressure 29.59 in
Visibility -9999.0 miles
Clouds
Windchill 41 °F
Dew Point 32 °F
Humidity 70%
Rainfall 0.79 in
Snow Depth Not available.
UV 0.0 out of 12
Pollen Not available.
Air Quality Not available.
Flu Activity Not available.
METAR LKPR 312030Z 27021KT CAVOK 05/M02 Q1002 NOSIG

More Conditions Fewer Conditions

Pressure 29.59 in
Visibility -9999.0 miles
Clouds
Windchill 41 °F
Dew Point 32 °F
Humidity 70%
Rainfall 0.79 in
Snow Depth Not available.
UV 0.0 out of 12
Pollen Not available.
Air Quality Not available.
Flu Activity Not available.
METAR LKPR 312030Z 27021KT CAVOK 05/M02 Q1002 NOSIG

More Conditions Fewer Conditions

10-Day Weather Forecast

Almanac

Astronomy

Mar. 31, 2015 Rise Set
Actual Time
Civil Twilight
Nautical Twilight
Astronomical Twilight
Moon
Length of Visible Light
Length of Day
Tomorrow will be .
, % of the Moon is Illuminated

Today's Extremes

Country Highs Country Lows

Community

WunderPhotos

Upload Photos

1,809,826 photos uploaded!

WunderBlogs® & News

Nearby

Air Quality

  Air Quality AQ Index Pollutant
Not available.

Snow Depth

Station Depth Elevation

Earthquake Activity

City Distance Mag. Time & Date
Minimum magnitude displayed is 2.5.

Coastal Water Temperatures

Place Temperature

Stations

Nearby Weather Stations

Station Location Temp. Windchill Dew Point Humidity Wind Precip. Elev Updated Type